sensor_id;sensor_type;location;lat;lon;timestamp;pressure;altitude;pressure_sealevel;temperature;humidity
11523;BME280;70090;43.208;27.904;2023-08-31T00:01:00;100041.84;;;27.81;100.00
11523;BME280;70090;43.208;27.904;2023-08-31T00:03:29;100042.00;;;27.72;100.00
11523;BME280;70090;43.208;27.904;2023-08-31T00:05:57;100036.22;;;27.56;100.00
11523;BME280;70090;43.208;27.904;2023-08-31T00:08:24;100035.94;;;27.54;100.00
11523;BME280;70090;43.208;27.904;2023-08-31T00:10:55;100037.72;;;27.51;100.00
11523;BME280;70090;43.208;27.904;2023-08-31T00:13:23;100039.84;;;27.56;100.00
11523;BME280;70090;43.208;27.904;2023-08-31T00:15:54;100031.13;;;27.60;100.00
11523;BME280;70090;43.208;27.904;2023-08-31T00:18:22;100034.50;;;27.64;100.00
11523;BME280;70090;43.208;27.904;2023-08-31T00:20:49;100039.16;;;27.72;100.00
11523;BME280;70090;43.208;27.904;2023-08-31T00:23:18;100040.84;;;27.84;100.00
11523;BME280;70090;43.208;27.904;2023-08-31T00:25:45;100050.38;;;27.92;100.00
11523;BME280;70090;43.208;27.904;2023-08-31T00:28:13;100043.19;;;27.91;100.00
11523;BME280;70090;43.208;27.904;2023-08-31T00:30:41;100038.09;;;27.95;100.00
11523;BME280;70090;43.208;27.904;2023-08-31T00:33:10;100036.50;;;27.94;100.00
11523;BME280;70090;43.208;27.904;2023-08-31T00:35:37;100034.03;;;28.07;100.00
11523;BME280;70090;43.208;27.904;2023-08-31T00:38:09;100025.81;;;28.09;100.00
11523;BME280;70090;43.208;27.904;2023-08-31T00:40:39;100040.75;;;28.15;100.00
11523;BME280;70090;43.208;27.904;2023-08-31T00:43:08;100040.00;;;28.20;100.00
11523;BME280;70090;43.208;27.904;2023-08-31T00:45:35;100035.13;;;28.26;100.00
11523;BME280;70090;43.208;27.904;2023-08-31T00:48:02;100049.56;;;28.28;100.00
11523;BME280;70090;43.208;27.904;2023-08-31T00:50:29;100048.56;;;28.31;100.00
11523;BME280;70090;43.208;27.904;2023-08-31T00:52:56;100060.88;;;28.23;100.00
11523;BME280;70090;43.208;27.904;2023-08-31T00:55:23;100043.81;;;28.06;100.00
11523;BME280;70090;43.208;27.904;2023-08-31T00:57:53;100053.97;;;27.87;100.00
11523;BME280;70090;43.208;27.904;2023-08-31T01:00:21;100059.94;;;27.64;100.00
11523;BME280;70090;43.208;27.904;2023-08-31T01:02:59;100074.06;;;27.33;100.00
11523;BME280;70090;43.208;27.904;2023-08-31T01:05:39;100070.66;;;27.03;100.00
11523;BME280;70090;43.208;27.904;2023-08-31T01:08:21;100073.34;;;26.67;100.00
11523;BME280;70090;43.208;27.904;2023-08-31T01:11:00;100082.84;;;26.49;100.00
11523;BME280;70090;43.208;27.904;2023-08-31T01:13:31;100081.56;;;26.30;100.00
11523;BME280;70090;43.208;27.904;2023-08-31T01:16:01;100078.53;;;26.14;100.00
11523;BME280;70090;43.208;27.904;2023-08-31T01:18:31;100076.13;;;26.07;100.00
11523;BME280;70090;43.208;27.904;2023-08-31T01:21:05;100076.03;;;26.01;100.00
11523;BME280;70090;43.208;27.904;2023-08-31T01:23:50;100082.31;;;25.91;100.00
11523;BME280;70090;43.208;27.904;2023-08-31T01:26:19;100077.34;;;25.86;100.00
11523;BME280;70090;43.208;27.904;2023-08-31T01:28:46;100082.09;;;25.80;100.00
11523;BME280;70090;43.208;27.904;2023-08-31T01:31:13;100081.41;;;25.85;100.00
11523;BME280;70090;43.208;27.904;2023-08-31T01:33:40;100083.78;;;25.87;100.00
11523;BME280;70090;43.208;27.904;2023-08-31T01:36:13;100078.91;;;25.73;100.00
11523;BME280;70090;43.208;27.904;2023-08-31T01:38:49;100101.56;;;25.64;100.00
11523;BME280;70090;43.208;27.904;2023-08-31T01:41:19;100085.84;;;25.43;100.00
11523;BME280;70090;43.208;27.904;2023-08-31T01:43:47;100094.78;;;25.56;100.00
11523;BME280;70090;43.208;27.904;2023-08-31T01:46:15;100103.13;;;25.65;100.00
11523;BME280;70090;43.208;27.904;2023-08-31T01:48:43;100107.00;;;25.67;100.00
11523;BME280;70090;43.208;27.904;2023-08-31T01:51:10;100105.84;;;25.74;100.00
11523;BME280;70090;43.208;27.904;2023-08-31T01:53:38;100114.56;;;25.76;100.00
11523;BME280;70090;43.208;27.904;2023-08-31T01:56:06;100100.19;;;25.74;100.00
11523;BME280;70090;43.208;27.904;2023-08-31T01:58:33;100105.25;;;25.70;100.00
11523;BME280;70090;43.208;27.904;2023-08-31T02:01:00;100106.69;;;25.65;100.00
11523;BME280;70090;43.208;27.904;2023-08-31T02:03:27;100098.06;;;25.54;100.00
11523;BME280;70090;43.208;27.904;2023-08-31T02:05:53;100104.59;;;25.46;100.00
11523;BME280;70090;43.208;27.904;2023-08-31T02:08:20;100105.75;;;25.39;100.00
11523;BME280;70090;43.208;27.904;2023-08-31T02:10:47;100109.16;;;25.29;100.00
11523;BME280;70090;43.208;27.904;2023-08-31T02:13:16;100113.31;;;25.19;100.00
11523;BME280;70090;43.208;27.904;2023-08-31T02:15:43;100115.53;;;25.15;100.00
11523;BME280;70090;43.208;27.904;2023-08-31T02:18:10;100107.75;;;25.10;100.00
11523;BME280;70090;43.208;27.904;2023-08-31T02:20:36;100114.06;;;25.05;100.00
11523;BME280;70090;43.208;27.904;2023-08-31T02:23:04;100110.38;;;24.99;100.00
11523;BME280;70090;43.208;27.904;2023-08-31T02:25:31;100105.03;;;25.01;100.00
11523;BME280;70090;43.208;27.904;2023-08-31T02:27:58;100104.06;;;25.04;100.00
11523;BME280;70090;43.208;27.904;2023-08-31T02:30:26;100110.59;;;25.10;100.00
11523;BME280;70090;43.208;27.904;2023-08-31T02:32:53;100106.78;;;25.13;100.00
11523;BME280;70090;43.208;27.904;2023-08-31T02:35:20;100117.75;;;25.11;100.00
11523;BME280;70090;43.208;27.904;2023-08-31T02:37:47;100120.56;;;25.11;100.00
11523;BME280;70090;43.208;27.904;2023-08-31T02:40:14;100111.63;;;24.98;100.00
11523;BME280;70090;43.208;27.904;2023-08-31T02:42:41;100124.56;;;25.04;100.00
11523;BME280;70090;43.208;27.904;2023-08-31T02:45:10;100114.34;;;25.07;100.00
11523;BME280;70090;43.208;27.904;2023-08-31T02:47:39;100123.09;;;25.09;100.00
11523;BME280;70090;43.208;27.904;2023-08-31T02:50:07;100115.31;;;25.04;100.00
11523;BME280;70090;43.208;27.904;2023-08-31T02:52:34;100124.91;;;24.97;100.00
11523;BME280;70090;43.208;27.904;2023-08-31T02:55:01;100113.50;;;24.77;100.00
11523;BME280;70090;43.208;27.904;2023-08-31T02:57:28;100112.53;;;24.80;100.00
11523;BME280;70090;43.208;27.904;2023-08-31T02:59:55;100118.56;;;24.73;100.00
11523;BME280;70090;43.208;27.904;2023-08-31T03:02:22;100130.97;;;24.67;100.00
11523;BME280;70090;43.208;27.904;2023-08-31T03:04:50;100128.22;;;24.58;100.00
11523;BME280;70090;43.208;27.904;2023-08-31T03:07:17;100119.00;;;24.48;100.00
11523;BME280;70090;43.208;27.904;2023-08-31T03:09:48;100123.88;;;24.48;100.00
11523;BME280;70090;43.208;27.904;2023-08-31T03:12:15;100125.88;;;24.56;100.00
11523;BME280;70090;43.208;27.904;2023-08-31T03:14:43;100121.34;;;24.50;100.00
11523;BME280;70090;43.208;27.904;2023-08-31T03:17:10;100134.72;;;24.40;100.00
11523;BME280;70090;43.208;27.904;2023-08-31T03:19:37;100123.06;;;24.33;100.00
11523;BME280;70090;43.208;27.904;2023-08-31T03:22:05;100131.84;;;24.26;100.00
11523;BME280;70090;43.208;27.904;2023-08-31T03:24:32;100138.28;;;24.17;100.00
11523;BME280;70090;43.208;27.904;2023-08-31T03:26:59;100136.72;;;24.16;100.00
11523;BME280;70090;43.208;27.904;2023-08-31T03:29:26;100126.72;;;24.15;100.00
11523;BME280;70090;43.208;27.904;2023-08-31T03:31:54;100133.59;;;24.14;100.00
11523;BME280;70090;43.208;27.904;2023-08-31T03:34:21;100136.91;;;24.13;100.00
11523;BME280;70090;43.208;27.904;2023-08-31T03:36:48;100149.53;;;24.17;100.00
11523;BME280;70090;43.208;27.904;2023-08-31T03:39:17;100141.22;;;24.23;100.00
11523;BME280;70090;43.208;27.904;2023-08-31T03:41:43;100143.38;;;24.28;100.00
11523;BME280;70090;43.208;27.904;2023-08-31T03:44:10;100139.00;;;24.27;100.00
11523;BME280;70090;43.208;27.904;2023-08-31T03:46:37;100146.84;;;24.23;100.00
11523;BME280;70090;43.208;27.904;2023-08-31T03:49:04;100147.44;;;24.27;100.00
11523;BME280;70090;43.208;27.904;2023-08-31T03:51:31;100152.28;;;24.26;100.00
11523;BME280;70090;43.208;27.904;2023-08-31T03:53:57;100149.00;;;24.28;100.00
11523;BME280;70090;43.208;27.904;2023-08-31T03:56:26;100155.91;;;24.18;100.00
11523;BME280;70090;43.208;27.904;2023-08-31T03:58:52;100160.47;;;24.15;100.00
11523;BME280;70090;43.208;27.904;2023-08-31T04:01:19;100157.66;;;24.15;100.00
11523;BME280;70090;43.208;27.904;2023-08-31T04:03:46;100160.31;;;24.10;100.00
11523;BME280;70090;43.208;27.904;2023-08-31T04:06:13;100164.09;;;24.07;100.00
11523;BME280;70090;43.208;27.904;2023-08-31T04:08:40;100168.16;;;24.06;100.00
11523;BME280;70090;43.208;27.904;2023-08-31T04:11:07;100171.63;;;24.01;100.00
11523;BME280;70090;43.208;27.904;2023-08-31T04:13:35;100175.06;;;23.96;100.00
11523;BME280;70090;43.208;27.904;2023-08-31T04:16:02;100192.59;;;23.91;100.00
11523;BME280;70090;43.208;27.904;2023-08-31T04:18:29;100190.09;;;23.93;100.00
11523;BME280;70090;43.208;27.904;2023-08-31T04:20:56;100193.63;;;24.02;100.00
11523;BME280;70090;43.208;27.904;2023-08-31T04:23:24;100205.31;;;24.10;100.00
11523;BME280;70090;43.208;27.904;2023-08-31T04:25:51;100211.88;;;24.07;100.00
11523;BME280;70090;43.208;27.904;2023-08-31T04:28:18;100204.72;;;24.06;100.00
11523;BME280;70090;43.208;27.904;2023-08-31T04:30:47;100206.78;;;23.96;100.00
11523;BME280;70090;43.208;27.904;2023-08-31T04:33:14;100215.97;;;23.97;100.00
11523;BME280;70090;43.208;27.904;2023-08-31T04:35:41;100204.44;;;23.95;100.00
11523;BME280;70090;43.208;27.904;2023-08-31T04:38:08;100217.50;;;24.07;100.00
11523;BME280;70090;43.208;27.904;2023-08-31T04:40:35;100210.63;;;24.08;100.00
11523;BME280;70090;43.208;27.904;2023-08-31T04:43:03;100216.81;;;24.21;100.00
11523;BME280;70090;43.208;27.904;2023-08-31T04:45:30;100214.81;;;24.21;100.00
11523;BME280;70090;43.208;27.904;2023-08-31T04:47:58;100224.00;;;24.22;100.00
11523;BME280;70090;43.208;27.904;2023-08-31T04:50:25;100211.56;;;24.14;100.00
11523;BME280;70090;43.208;27.904;2023-08-31T04:52:52;100217.22;;;24.05;100.00
11523;BME280;70090;43.208;27.904;2023-08-31T04:55:21;100208.66;;;23.99;100.00
11523;BME280;70090;43.208;27.904;2023-08-31T04:57:48;100211.28;;;24.03;100.00
11523;BME280;70090;43.208;27.904;2023-08-31T05:00:15;100224.25;;;24.00;100.00
11523;BME280;70090;43.208;27.904;2023-08-31T05:02:42;100215.81;;;24.00;100.00
11523;BME280;70090;43.208;27.904;2023-08-31T05:05:11;100216.28;;;23.99;100.00
11523;BME280;70090;43.208;27.904;2023-08-31T05:07:38;100228.16;;;24.03;100.00
11523;BME280;70090;43.208;27.904;2023-08-31T05:10:07;100235.34;;;24.04;100.00
11523;BME280;70090;43.208;27.904;2023-08-31T05:12:34;100234.41;;;23.98;100.00
11523;BME280;70090;43.208;27.904;2023-08-31T05:15:01;100224.91;;;23.95;100.00
11523;BME280;70090;43.208;27.904;2023-08-31T05:17:28;100240.16;;;24.03;100.00
11523;BME280;70090;43.208;27.904;2023-08-31T05:19:55;100246.56;;;24.13;100.00
11523;BME280;70090;43.208;27.904;2023-08-31T05:22:23;100247.19;;;24.08;100.00
11523;BME280;70090;43.208;27.904;2023-08-31T05:24:50;100247.81;;;24.12;100.00
11523;BME280;70090;43.208;27.904;2023-08-31T05:27:17;100251.19;;;24.25;100.00
11523;BME280;70090;43.208;27.904;2023-08-31T05:29:44;100257.38;;;24.38;100.00
11523;BME280;70090;43.208;27.904;2023-08-31T05:32:11;100250.66;;;24.35;100.00
11523;BME280;70090;43.208;27.904;2023-08-31T05:34:37;100241.94;;;24.33;100.00
11523;BME280;70090;43.208;27.904;2023-08-31T05:37:05;100242.53;;;24.37;100.00
11523;BME280;70090;43.208;27.904;2023-08-31T05:39:33;100245.81;;;24.45;100.00
11523;BME280;70090;43.208;27.904;2023-08-31T05:42:00;100252.31;;;24.51;100.00
11523;BME280;70090;43.208;27.904;2023-08-31T05:44:27;100251.03;;;24.61;100.00
11523;BME280;70090;43.208;27.904;2023-08-31T05:46:54;100250.72;;;24.68;100.00
11523;BME280;70090;43.208;27.904;2023-08-31T05:49:21;100245.97;;;24.74;100.00
11523;BME280;70090;43.208;27.904;2023-08-31T05:51:47;100254.22;;;24.77;100.00
11523;BME280;70090;43.208;27.904;2023-08-31T05:54:14;100260.78;;;24.83;100.00
11523;BME280;70090;43.208;27.904;2023-08-31T05:56:42;100257.16;;;24.83;100.00
11523;BME280;70090;43.208;27.904;2023-08-31T05:59:10;100259.75;;;24.72;100.00
11523;BME280;70090;43.208;27.904;2023-08-31T06:01:36;100273.81;;;24.72;100.00
11523;BME280;70090;43.208;27.904;2023-08-31T06:04:03;100272.59;;;24.64;100.00
11523;BME280;70090;43.208;27.904;2023-08-31T06:06:31;100276.66;;;24.63;100.00
11523;BME280;70090;43.208;27.904;2023-08-31T06:08:58;100277.63;;;24.60;100.00
11523;BME280;70090;43.208;27.904;2023-08-31T06:11:25;100273.28;;;24.82;100.00
11523;BME280;70090;43.208;27.904;2023-08-31T06:13:53;100287.38;;;25.06;100.00
11523;BME280;70090;43.208;27.904;2023-08-31T06:16:20;100293.09;;;25.20;100.00
11523;BME280;70090;43.208;27.904;2023-08-31T06:18:48;100288.53;;;25.23;100.00
11523;BME280;70090;43.208;27.904;2023-08-31T06:21:15;100290.91;;;25.39;100.00
11523;BME280;70090;43.208;27.904;2023-08-31T06:23:41;100296.66;;;25.44;100.00
11523;BME280;70090;43.208;27.904;2023-08-31T06:26:08;100303.38;;;25.47;100.00
11523;BME280;70090;43.208;27.904;2023-08-31T06:28:35;100316.88;;;25.43;100.00
11523;BME280;70090;43.208;27.904;2023-08-31T06:31:04;100325.25;;;25.52;100.00
11523;BME280;70090;43.208;27.904;2023-08-31T06:33:31;100321.75;;;25.57;100.00
11523;BME280;70090;43.208;27.904;2023-08-31T06:35:57;100323.13;;;25.61;100.00
11523;BME280;70090;43.208;27.904;2023-08-31T06:38:24;100311.38;;;25.63;100.00
11523;BME280;70090;43.208;27.904;2023-08-31T06:40:51;100304.88;;;25.71;100.00
11523;BME280;70090;43.208;27.904;2023-08-31T06:43:23;100308.50;;;25.72;100.00
11523;BME280;70090;43.208;27.904;2023-08-31T06:45:51;100318.91;;;25.80;100.00
11523;BME280;70090;43.208;27.904;2023-08-31T06:48:20;100320.28;;;25.84;100.00
11523;BME280;70090;43.208;27.904;2023-08-31T06:50:47;100311.34;;;25.86;100.00
11523;BME280;70090;43.208;27.904;2023-08-31T06:53:13;100320.22;;;25.93;100.00
11523;BME280;70090;43.208;27.904;2023-08-31T06:55:40;100319.72;;;25.95;100.00
11523;BME280;70090;43.208;27.904;2023-08-31T06:58:07;100313.31;;;25.94;100.00
11523;BME280;70090;43.208;27.904;2023-08-31T07:00:34;100325.38;;;26.09;100.00
11523;BME280;70090;43.208;27.904;2023-08-31T07:03:01;100324.72;;;26.14;100.00
11523;BME280;70090;43.208;27.904;2023-08-31T07:05:33;100321.56;;;26.27;100.00
11523;BME280;70090;43.208;27.904;2023-08-31T07:08:02;100331.09;;;26.44;100.00
11523;BME280;70090;43.208;27.904;2023-08-31T07:10:28;100324.41;;;26.56;100.00
11523;BME280;70090;43.208;27.904;2023-08-31T07:12:55;100328.13;;;26.82;100.00
11523;BME280;70090;43.208;27.904;2023-08-31T07:15:22;100330.38;;;26.92;100.00
11523;BME280;70090;43.208;27.904;2023-08-31T07:17:49;100334.56;;;26.82;100.00
11523;BME280;70090;43.208;27.904;2023-08-31T07:20:16;100329.22;;;26.84;100.00
11523;BME280;70090;43.208;27.904;2023-08-31T07:22:44;100334.69;;;26.73;100.00
11523;BME280;70090;43.208;27.904;2023-08-31T07:25:11;100343.44;;;26.75;100.00
11523;BME280;70090;43.208;27.904;2023-08-31T07:27:38;100340.56;;;27.04;100.00
11523;BME280;70090;43.208;27.904;2023-08-31T07:30:06;100343.63;;;27.21;100.00
11523;BME280;70090;43.208;27.904;2023-08-31T07:32:33;100342.16;;;27.25;100.00
11523;BME280;70090;43.208;27.904;2023-08-31T07:34:59;100346.00;;;27.42;100.00
11523;BME280;70090;43.208;27.904;2023-08-31T07:37:26;100344.56;;;27.32;100.00
11523;BME280;70090;43.208;27.904;2023-08-31T07:39:54;100349.38;;;27.46;100.00
11523;BME280;70090;43.208;27.904;2023-08-31T07:42:21;100340.31;;;27.22;100.00
11523;BME280;70090;43.208;27.904;2023-08-31T07:44:48;100340.41;;;27.28;100.00
11523;BME280;70090;43.208;27.904;2023-08-31T07:47:16;100351.78;;;27.53;100.00
11523;BME280;70090;43.208;27.904;2023-08-31T07:49:43;100339.78;;;27.78;100.00
11523;BME280;70090;43.208;27.904;2023-08-31T07:52:10;100346.56;;;28.12;100.00
11523;BME280;70090;43.208;27.904;2023-08-31T07:54:56;100343.78;;;28.17;100.00
11523;BME280;70090;43.208;27.904;2023-08-31T07:57:22;100348.78;;;28.28;100.00
11523;BME280;70090;43.208;27.904;2023-08-31T07:59:49;100348.41;;;28.40;100.00
11523;BME280;70090;43.208;27.904;2023-08-31T08:02:16;100349.00;;;28.50;100.00
11523;BME280;70090;43.208;27.904;2023-08-31T08:04:45;100352.44;;;28.59;100.00
11523;BME280;70090;43.208;27.904;2023-08-31T08:07:12;100317.81;;;28.44;100.00
11523;BME280;70090;43.208;27.904;2023-08-31T08:09:39;100342.75;;;28.71;100.00
11523;BME280;70090;43.208;27.904;2023-08-31T08:12:08;100348.63;;;28.67;100.00
11523;BME280;70090;43.208;27.904;2023-08-31T08:14:34;100349.75;;;28.75;100.00
11523;BME280;70090;43.208;27.904;2023-08-31T08:17:01;100340.13;;;28.98;100.00
11523;BME280;70090;43.208;27.904;2023-08-31T08:19:28;100337.56;;;29.00;100.00
11523;BME280;70090;43.208;27.904;2023-08-31T08:21:55;100336.44;;;29.29;100.00
11523;BME280;70090;43.208;27.904;2023-08-31T08:24:22;100334.41;;;29.35;100.00
11523;BME280;70090;43.208;27.904;2023-08-31T08:26:49;100334.38;;;29.24;100.00
11523;BME280;70090;43.208;27.904;2023-08-31T08:29:17;100333.66;;;29.40;99.38
11523;BME280;70090;43.208;27.904;2023-08-31T08:31:44;100334.91;;;29.33;98.46
11523;BME280;70090;43.208;27.904;2023-08-31T08:34:10;100337.31;;;29.46;98.67
11523;BME280;70090;43.208;27.904;2023-08-31T08:36:37;100343.63;;;29.77;94.89
11523;BME280;70090;43.208;27.904;2023-08-31T08:39:04;100339.78;;;29.86;93.85
11523;BME280;70090;43.208;27.904;2023-08-31T08:41:32;100336.22;;;30.02;91.79
11523;BME280;70090;43.208;27.904;2023-08-31T08:44:02;100335.75;;;30.09;89.12
11523;BME280;70090;43.208;27.904;2023-08-31T08:46:33;100335.47;;;30.18;87.35
11523;BME280;70090;43.208;27.904;2023-08-31T08:49:00;100335.16;;;29.99;85.91
11523;BME280;70090;43.208;27.904;2023-08-31T08:51:30;100334.91;;;29.92;87.01
11523;BME280;70090;43.208;27.904;2023-08-31T08:53:59;100335.00;;;30.36;86.40
11523;BME280;70090;43.208;27.904;2023-08-31T08:56:26;100331.94;;;30.67;81.08
11523;BME280;70090;43.208;27.904;2023-08-31T08:58:53;100342.53;;;30.72;80.54
11523;BME280;70090;43.208;27.904;2023-08-31T09:01:20;100338.88;;;30.88;80.08
11523;BME280;70090;43.208;27.904;2023-08-31T09:03:49;100345.81;;;31.09;76.02
11523;BME280;70090;43.208;27.904;2023-08-31T09:06:16;100337.28;;;31.25;72.13
11523;BME280;70090;43.208;27.904;2023-08-31T09:08:43;100339.25;;;31.52;70.39
11523;BME280;70090;43.208;27.904;2023-08-31T09:11:19;100356.28;;;31.68;68.30
11523;BME280;70090;43.208;27.904;2023-08-31T09:13:48;100342.34;;;31.54;68.66
11523;BME280;70090;43.208;27.904;2023-08-31T09:16:24;100337.16;;;31.58;66.64
11523;BME280;70090;43.208;27.904;2023-08-31T09:18:53;100345.94;;;31.54;67.19
11523;BME280;70090;43.208;27.904;2023-08-31T09:21:19;100333.22;;;31.66;64.94
11523;BME280;70090;43.208;27.904;2023-08-31T09:23:54;100334.00;;;31.72;64.71
11523;BME280;70090;43.208;27.904;2023-08-31T09:26:22;100331.03;;;31.94;63.18
11523;BME280;70090;43.208;27.904;2023-08-31T09:28:49;100333.69;;;31.81;56.44
11523;BME280;70090;43.208;27.904;2023-08-31T09:31:16;100327.47;;;31.83;54.93
11523;BME280;70090;43.208;27.904;2023-08-31T09:33:49;100325.22;;;31.70;55.54
11523;BME280;70090;43.208;27.904;2023-08-31T09:36:19;100327.78;;;31.79;57.74
11523;BME280;70090;43.208;27.904;2023-08-31T09:38:47;100318.91;;;31.88;55.19
11523;BME280;70090;43.208;27.904;2023-08-31T09:41:14;100325.81;;;31.98;55.05
11523;BME280;70090;43.208;27.904;2023-08-31T09:43:41;100320.50;;;32.24;54.27
11523;BME280;70090;43.208;27.904;2023-08-31T09:46:08;100329.34;;;32.50;55.70
11523;BME280;70090;43.208;27.904;2023-08-31T09:48:36;100335.38;;;32.76;52.88
11523;BME280;70090;43.208;27.904;2023-08-31T09:51:05;100330.50;;;32.71;51.61
11523;BME280;70090;43.208;27.904;2023-08-31T09:53:36;100335.75;;;32.62;52.98
11523;BME280;70090;43.208;27.904;2023-08-31T09:56:05;100333.34;;;32.71;53.96
11523;BME280;70090;43.208;27.904;2023-08-31T09:58:33;100336.09;;;32.82;53.07
11523;BME280;70090;43.208;27.904;2023-08-31T10:01:00;100340.47;;;32.83;52.20
11523;BME280;70090;43.208;27.904;2023-08-31T10:03:28;100333.84;;;32.99;50.94
11523;BME280;70090;43.208;27.904;2023-08-31T10:05:55;100329.81;;;32.89;53.61
11523;BME280;70090;43.208;27.904;2023-08-31T10:08:23;100325.75;;;33.03;51.70
11523;BME280;70090;43.208;27.904;2023-08-31T10:10:53;100334.75;;;33.13;51.27
11523;BME280;70090;43.208;27.904;2023-08-31T10:13:21;100329.56;;;33.11;48.43
11523;BME280;70090;43.208;27.904;2023-08-31T10:15:49;100339.09;;;33.43;49.20
11523;BME280;70090;43.208;27.904;2023-08-31T10:18:16;100344.19;;;33.74;48.19
11523;BME280;70090;43.208;27.904;2023-08-31T10:20:44;100344.47;;;33.89;47.68
11523;BME280;70090;43.208;27.904;2023-08-31T10:23:11;100341.06;;;34.09;43.72
11523;BME280;70090;43.208;27.904;2023-08-31T10:26:03;100308.72;;;34.01;42.86
11523;BME280;70090;43.208;27.904;2023-08-31T10:28:39;100343.22;;;34.40;42.73
11523;BME280;70090;43.208;27.904;2023-08-31T10:31:07;100345.25;;;34.27;43.50
11523;BME280;70090;43.208;27.904;2023-08-31T10:33:34;100345.84;;;34.01;60.20
11523;BME280;70090;43.208;27.904;2023-08-31T10:36:02;100359.47;;;33.77;61.40
11523;BME280;70090;43.208;27.904;2023-08-31T10:38:30;100356.91;;;33.92;72.55
11523;BME280;70090;43.208;27.904;2023-08-31T10:41:03;100350.50;;;34.04;73.88
11523;BME280;70090;43.208;27.904;2023-08-31T10:43:45;100351.75;;;34.09;76.64
11523;BME280;70090;43.208;27.904;2023-08-31T10:46:16;100344.94;;;34.30;74.95
11523;BME280;70090;43.208;27.904;2023-08-31T10:48:50;100335.97;;;34.39;76.10
11523;BME280;70090;43.208;27.904;2023-08-31T10:51:17;100341.06;;;34.46;77.63
11523;BME280;70090;43.208;27.904;2023-08-31T10:53:45;100335.56;;;34.48;77.69
11523;BME280;70090;43.208;27.904;2023-08-31T10:56:15;100342.00;;;34.17;76.93
11523;BME280;70090;43.208;27.904;2023-08-31T10:58:42;100354.69;;;34.03;78.09
11523;BME280;70090;43.208;27.904;2023-08-31T11:01:10;100348.09;;;33.71;79.36
11523;BME280;70090;43.208;27.904;2023-08-31T11:03:57;100348.09;;;33.47;82.05
11523;BME280;70090;43.208;27.904;2023-08-31T11:06:24;100338.13;;;33.35;81.05
11523;BME280;70090;43.208;27.904;2023-08-31T11:08:55;100331.03;;;33.23;79.46
11523;BME280;70090;43.208;27.904;2023-08-31T11:11:24;100338.03;;;33.22;79.09
11523;BME280;70090;43.208;27.904;2023-08-31T11:13:56;100337.97;;;33.28;78.87
11523;BME280;70090;43.208;27.904;2023-08-31T11:16:23;100340.09;;;33.46;80.79
11523;BME280;70090;43.208;27.904;2023-08-31T11:18:50;100333.00;;;33.52;84.85
11523;BME280;70090;43.208;27.904;2023-08-31T11:21:18;100321.50;;;33.39;85.28
11523;BME280;70090;43.208;27.904;2023-08-31T11:23:47;100328.66;;;33.27;85.72
11523;BME280;70090;43.208;27.904;2023-08-31T11:26:14;100337.34;;;33.59;83.96
11523;BME280;70090;43.208;27.904;2023-08-31T11:28:44;100342.78;;;33.99;82.50
11523;BME280;70090;43.208;27.904;2023-08-31T11:31:11;100338.59;;;34.37;76.46
11523;BME280;70090;43.208;27.904;2023-08-31T11:33:39;100338.75;;;34.57;73.57
11523;BME280;70090;43.208;27.904;2023-08-31T11:36:07;100341.50;;;34.50;73.64
11523;BME280;70090;43.208;27.904;2023-08-31T11:38:34;100342.31;;;34.14;73.95
11523;BME280;70090;43.208;27.904;2023-08-31T11:41:02;100358.66;;;33.95;73.87
11523;BME280;70090;43.208;27.904;2023-08-31T11:43:29;100350.94;;;33.71;74.64
11523;BME280;70090;43.208;27.904;2023-08-31T11:45:57;100354.63;;;33.66;76.68
11523;BME280;70090;43.208;27.904;2023-08-31T11:48:25;100352.78;;;33.69;78.98
11523;BME280;70090;43.208;27.904;2023-08-31T11:50:52;100351.19;;;33.73;79.86
11523;BME280;70090;43.208;27.904;2023-08-31T11:53:19;100358.56;;;33.63;79.33
11523;BME280;70090;43.208;27.904;2023-08-31T11:55:50;100350.59;;;33.56;79.43
11523;BME280;70090;43.208;27.904;2023-08-31T11:58:17;100352.47;;;33.54;77.82
11523;BME280;70090;43.208;27.904;2023-08-31T12:00:44;100359.06;;;33.43;76.51
11523;BME280;70090;43.208;27.904;2023-08-31T12:03:13;100357.06;;;33.38;77.01
11523;BME280;70090;43.208;27.904;2023-08-31T12:05:47;100361.41;;;33.15;78.31
11523;BME280;70090;43.208;27.904;2023-08-31T12:08:14;100362.53;;;33.07;80.12
11523;BME280;70090;43.208;27.904;2023-08-31T12:10:41;100355.56;;;32.78;81.75
11523;BME280;70090;43.208;27.904;2023-08-31T12:13:08;100356.44;;;32.62;83.79
11523;BME280;70090;43.208;27.904;2023-08-31T12:15:35;100357.56;;;32.54;86.18
11523;BME280;70090;43.208;27.904;2023-08-31T12:18:07;100360.09;;;32.63;87.62
11523;BME280;70090;43.208;27.904;2023-08-31T12:20:42;100360.03;;;32.68;86.25
11523;BME280;70090;43.208;27.904;2023-08-31T12:23:09;100354.03;;;32.77;84.25
11523;BME280;70090;43.208;27.904;2023-08-31T12:25:36;100352.84;;;32.91;80.40
11523;BME280;70090;43.208;27.904;2023-08-31T12:28:03;100353.81;;;32.99;79.02
11523;BME280;70090;43.208;27.904;2023-08-31T12:30:30;100349.59;;;32.82;81.69
11523;BME280;70090;43.208;27.904;2023-08-31T12:32:57;100341.56;;;32.80;82.95
11523;BME280;70090;43.208;27.904;2023-08-31T12:35:24;100353.19;;;32.82;84.84
11523;BME280;70090;43.208;27.904;2023-08-31T12:37:52;100344.75;;;32.71;86.07